Time;durP1;ratioP1;P1;durP2;ratioP2;P2;SDS_P1;SDS_P2;PMS_P1;PMS_P2;Temp;Humidity;BMP_temperature;BMP_pressure;BME280_temperature;BME280_humidity;BME280_pressure;Samples;Min_cycle;Max_cycle;Signal;HPM_P1;HPM_P2
2023/10/03 00:01:44;;;;;;;7.15;4.82;;;;;;;;;;5093713;28;20036;-68
2023/10/03 00:04:10;;;;;;;8.65;5.50;;;;;;;;;;5093027;28;20220;-68
2023/10/03 00:06:38;;;;;;;8.50;5.07;;;;;;;;;;5093829;28;20031;-68
2023/10/03 00:09:10;;;;;;;10.30;5.07;;;;;;;;;;5093708;28;20028;-68
2023/10/03 00:11:37;;;;;;;7.43;5.00;;;;;;;;;;5093788;28;20020;-68
2023/10/03 00:14:07;;;;;;;9.50;5.53;;;;;;;;;;5093539;28;20481;-68
2023/10/03 00:16:34;;;;;;;7.60;5.13;;;;;;;;;;5093501;28;20038;-68
2023/10/03 00:19:01;;;;;;;6.60;5.07;;;;;;;;;;5093387;28;20020;-68
2023/10/03 00:21:27;;;;;;;9.02;5.32;;;;;;;;;;5093431;28;20500;-68
2023/10/03 00:23:54;;;;;;;8.57;5.35;;;;;;;;;;5093480;28;20024;-68
2023/10/03 00:26:22;;;;;;;8.80;5.43;;;;;;;;;;5093334;28;20024;-68
2023/10/03 00:28:51;;;;;;;11.60;5.43;;;;;;;;;;5093541;28;20024;-68
2023/10/03 00:31:18;;;;;;;7.70;4.85;;;;;;;;;;5093404;28;20046;-68
2023/10/03 00:33:44;;;;;;;8.48;5.18;;;;;;;;;;5093569;28;20016;-68
2023/10/03 00:36:18;;;;;;;8.30;4.50;;;;;;;;;;5093415;28;20024;-68
2023/10/03 00:38:45;;;;;;;7.03;5.03;;;;;;;;;;5093052;28;20023;-68
2023/10/03 00:41:12;;;;;;;10.13;5.55;;;;;;;;;;5093125;28;20040;-68
2023/10/03 00:43:51;;;;;;;7.32;4.68;;;;;;;;;;5092981;28;20024;-68
2023/10/03 00:46:18;;;;;;;9.65;5.20;;;;;;;;;;5093077;28;20492;-68
2023/10/03 00:48:47;;;;;;;9.20;5.28;;;;;;;;;;5092996;28;20027;-68
2023/10/03 00:51:15;;;;;;;10.85;5.22;;;;;;;;;;5092648;28;20093;-68
2023/10/03 00:53:43;;;;;;;7.60;5.20;;;;;;;;;;5092760;28;20043;-68
2023/10/03 00:56:10;;;;;;;8.43;5.40;;;;;;;;;;5092847;28;20036;-68
2023/10/03 00:58:37;;;;;;;7.93;5.10;;;;;;;;;;5092830;28;20020;-68
2023/10/03 01:01:03;;;;;;;12.77;5.18;;;;;;;;;;5092801;28;20514;-68
2023/10/03 01:03:30;;;;;;;10.25;5.60;;;;;;;;;;5092868;28;20024;-68
2023/10/03 01:06:05;;;;;;;9.43;5.43;;;;;;;;;;5074250;28;20028;-68
2023/10/03 01:08:38;;;;;;;9.90;5.47;;;;;;;;;;5092768;28;20072;-68
2023/10/03 01:11:05;;;;;;;13.10;5.82;;;;;;;;;;5093023;28;20039;-68
2023/10/03 01:13:32;;;;;;;9.20;5.68;;;;;;;;;;5092366;28;20511;-68
2023/10/03 01:15:58;;;;;;;7.90;5.00;;;;;;;;;;5092736;28;20024;-68
2023/10/03 01:18:27;;;;;;;7.45;5.22;;;;;;;;;;5092353;28;20038;-68
2023/10/03 01:21:00;;;;;;;8.88;5.22;;;;;;;;;;5092115;28;20032;-68
2023/10/03 01:23:31;;;;;;;9.52;5.50;;;;;;;;;;5092493;28;20373;-68
2023/10/03 01:25:57;;;;;;;12.73;5.38;;;;;;;;;;5092448;28;20487;-68
2023/10/03 01:28:25;;;;;;;7.68;5.30;;;;;;;;;;5092263;28;20039;-69
2023/10/03 01:30:51;;;;;;;8.18;5.25;;;;;;;;;;5092418;28;20022;-68
2023/10/03 01:33:17;;;;;;;10.02;5.43;;;;;;;;;;5092768;28;20028;-68
2023/10/03 01:35:44;;;;;;;8.55;5.47;;;;;;;;;;5091951;28;20028;-68
2023/10/03 01:38:14;;;;;;;7.88;5.38;;;;;;;;;;5092150;28;20322;-68
2023/10/03 01:40:40;;;;;;;10.47;5.53;;;;;;;;;;5092138;28;20473;-68
2023/10/03 01:43:07;;;;;;;9.02;5.55;;;;;;;;;;5092190;28;20036;-68
2023/10/03 01:45:34;;;;;;;9.30;5.28;;;;;;;;;;5092260;28;20024;-68
2023/10/03 01:48:00;;;;;;;8.85;5.40;;;;;;;;;;5092428;28;20024;-68
2023/10/03 01:50:28;;;;;;;10.63;5.45;;;;;;;;;;5074024;28;20024;-68
2023/10/03 01:52:55;;;;;;;10.02;4.97;;;;;;;;;;5073841;28;20032;-68
2023/10/03 01:55:22;;;;;;;9.30;5.50;;;;;;;;;;5090871;28;20032;-68
2023/10/03 01:57:48;;;;;;;8.75;5.40;;;;;;;;;;5092176;28;20028;-68
2023/10/03 02:00:25;;;;;;;10.30;5.47;;;;;;;;;;5092190;28;20039;-68
2023/10/03 02:02:53;;;;;;;6.55;5.65;;;;;;;;;;5091984;28;20016;-68
2023/10/03 02:05:19;;;;;;;7.43;5.20;;;;;;;;;;5091924;28;20024;-68
2023/10/03 02:07:46;;;;;;;7.45;5.78;;;;;;;;;;5092066;28;20031;-68
2023/10/03 02:10:12;;;;;;;9.55;5.82;;;;;;;;;;5092121;28;20038;-68
2023/10/03 02:12:40;;;;;;;10.32;5.50;;;;;;;;;;5092260;28;20028;-68
2023/10/03 02:15:09;;;;;;;8.50;5.40;;;;;;;;;;5091953;28;20024;-68
2023/10/03 02:17:36;;;;;;;7.68;5.57;;;;;;;;;;5092135;28;20022;-68
2023/10/03 02:20:08;;;;;;;8.73;5.75;;;;;;;;;;5091487;28;20020;-68
2023/10/03 02:22:35;;;;;;;9.90;5.15;;;;;;;;;;5091884;28;20020;-68
2023/10/03 02:25:03;;;;;;;8.52;5.47;;;;;;;;;;5073999;28;20092;-68
2023/10/03 02:27:29;;;;;;;7.75;5.35;;;;;;;;;;5094746;28;20020;-68
2023/10/03 02:29:58;;;;;;;8.10;5.88;;;;;;;;;;5077964;28;20020;-68
2023/10/03 02:32:26;;;;;;;6.55;5.32;;;;;;;;;;5095627;28;20030;-67
2023/10/03 02:34:52;;;;;;;10.13;5.60;;;;;;;;;;5095518;28;20024;-68
2023/10/03 02:37:18;;;;;;;8.65;5.15;;;;;;;;;;5095889;28;20035;-68
2023/10/03 02:39:45;;;;;;;7.00;5.13;;;;;;;;;;5095408;28;20024;-68
2023/10/03 02:42:11;;;;;;;8.90;6.00;;;;;;;;;;5095484;28;20028;-68
2023/10/03 02:44:37;;;;;;;7.80;5.15;;;;;;;;;;5095424;28;20024;-68
2023/10/03 02:47:04;;;;;;;9.60;5.90;;;;;;;;;;5095229;28;20058;-68
2023/10/03 02:49:31;;;;;;;7.53;5.25;;;;;;;;;;5095493;28;20023;-68
2023/10/03 02:52:00;;;;;;;9.27;5.50;;;;;;;;;;5095308;28;20487;-68
2023/10/03 02:54:26;;;;;;;9.05;5.75;;;;;;;;;;5094018;28;20048;-68
2023/10/03 02:56:53;;;;;;;9.00;5.32;;;;;;;;;;5095416;28;20032;-68
2023/10/03 02:59:20;;;;;;;7.32;5.15;;;;;;;;;;5095107;28;20020;-68
2023/10/03 03:01:52;;;;;;;7.07;5.10;;;;;;;;;;5094659;28;20036;-68
2023/10/03 03:04:21;;;;;;;8.95;5.03;;;;;;;;;;5095015;28;20027;-68
2023/10/03 03:06:50;;;;;;;6.55;5.15;;;;;;;;;;5095018;28;20414;-68
2023/10/03 03:09:23;;;;;;;8.15;5.70;;;;;;;;;;5095285;28;20016;-68
2023/10/03 03:11:50;;;;;;;8.02;5.10;;;;;;;;;;5095332;28;20028;-68
2023/10/03 03:14:16;;;;;;;9.13;5.38;;;;;;;;;;5094910;28;20016;-68
2023/10/03 03:16:47;;;;;;;9.75;5.75;;;;;;;;;;5094804;28;20020;-68
2023/10/03 03:19:14;;;;;;;9.48;5.85;;;;;;;;;;5094716;28;20495;-68
2023/10/03 03:21:41;;;;;;;7.95;5.25;;;;;;;;;;5094656;28;20032;-68
2023/10/03 03:24:10;;;;;;;9.38;6.22;;;;;;;;;;5094708;28;20069;-68
2023/10/03 03:26:37;;;;;;;8.52;5.78;;;;;;;;;;5094649;28;20477;-68
2023/10/03 03:29:20;;;;;;;8.80;5.35;;;;;;;;;;5094381;28;20039;-68
2023/10/03 03:31:47;;;;;;;8.50;5.68;;;;;;;;;;5094046;28;20032;-68
2023/10/03 03:34:13;;;;;;;8.18;5.30;;;;;;;;;;5094753;28;20020;-68
2023/10/03 03:36:40;;;;;;;9.95;5.88;;;;;;;;;;5094426;28;20028;-68
2023/10/03 03:39:20;;;;;;;7.32;5.22;;;;;;;;;;5094317;28;20018;-68
2023/10/03 03:41:48;;;;;;;9.85;5.28;;;;;;;;;;5094314;28;20079;-68
2023/10/03 03:44:18;;;;;;;10.05;5.25;;;;;;;;;;5094189;28;20069;-68
2023/10/03 03:46:44;;;;;;;7.88;5.55;;;;;;;;;;5094252;28;20027;-68
2023/10/03 03:49:14;;;;;;;10.50;5.60;;;;;;;;;;5076283;28;20032;-68
2023/10/03 03:51:40;;;;;;;9.77;5.80;;;;;;;;;;5094075;28;20030;-68
2023/10/03 03:54:11;;;;;;;7.88;5.45;;;;;;;;;;5094082;28;20078;-68
2023/10/03 03:56:39;;;;;;;11.40;6.13;;;;;;;;;;5094185;28;20024;-68
2023/10/03 03:59:06;;;;;;;8.93;6.15;;;;;;;;;;5093938;28;20031;-68
2023/10/03 04:01:33;;;;;;;7.60;5.40;;;;;;;;;;5093410;28;20526;-68
2023/10/03 04:04:00;;;;;;;7.32;5.35;;;;;;;;;;5093937;28;20017;-68
2023/10/03 04:06:27;;;;;;;8.55;5.50;;;;;;;;;;5094163;28;20034;-68
2023/10/03 04:08:53;;;;;;;9.50;5.95;;;;;;;;;;5093872;28;20400;-68
2023/10/03 04:11:19;;;;;;;8.55;5.63;;;;;;;;;;5094170;28;20080;-68
2023/10/03 04:13:55;;;;;;;8.52;5.60;;;;;;;;;;5093517;28;20537;-68
2023/10/03 04:16:22;;;;;;;11.88;6.13;;;;;;;;;;5093787;28;20016;-68
2023/10/03 04:18:51;;;;;;;8.43;5.75;;;;;;;;;;5093792;28;20024;-68
2023/10/03 04:21:21;;;;;;;8.25;5.20;;;;;;;;;;5093552;28;20043;-68
2023/10/03 04:23:49;;;;;;;8.47;5.73;;;;;;;;;;5093553;28;20020;-68
2023/10/03 04:26:15;;;;;;;11.93;6.03;;;;;;;;;;5093451;28;20030;-68
2023/10/03 04:28:42;;;;;;;9.13;5.68;;;;;;;;;;5093134;28;20024;-68
2023/10/03 04:31:09;;;;;;;10.15;5.40;;;;;;;;;;5093484;28;20018;-68
2023/10/03 04:33:35;;;;;;;9.00;5.93;;;;;;;;;;5093633;28;20024;-68
2023/10/03 04:36:04;;;;;;;10.88;6.00;;;;;;;;;;5093398;28;20024;-68
2023/10/03 04:38:31;;;;;;;10.13;5.82;;;;;;;;;;5093309;28;20446;-68
2023/10/03 04:40:58;;;;;;;9.43;5.43;;;;;;;;;;5093377;28;20044;-68
2023/10/03 04:43:29;;;;;;;9.52;5.50;;;;;;;;;;5092757;28;20024;-68
2023/10/03 04:45:56;;;;;;;7.90;5.40;;;;;;;;;;5093201;28;20038;-68
2023/10/03 04:48:23;;;;;;;10.80;5.72;;;;;;;;;;5091629;28;20020;-68
2023/10/03 04:50:49;;;;;;;8.70;5.50;;;;;;;;;;5092782;28;20016;-69
2023/10/03 04:53:16;;;;;;;8.73;5.90;;;;;;;;;;5074831;28;20044;-68
2023/10/03 04:55:48;;;;;;;6.93;5.10;;;;;;;;;;5092851;28;20096;-68
2023/10/03 04:58:15;;;;;;;6.93;4.82;;;;;;;;;;5092511;28;20026;-68
2023/10/03 05:00:45;;;;;;;11.27;5.70;;;;;;;;;;5092712;28;20028;-68
2023/10/03 05:03:13;;;;;;;7.82;5.22;;;;;;;;;;5092766;28;20384;-68
2023/10/03 05:05:39;;;;;;;9.52;5.25;;;;;;;;;;5092562;28;20387;-68
2023/10/03 05:08:06;;;;;;;7.20;5.22;;;;;;;;;;5092811;28;20020;-68
2023/10/03 05:10:35;;;;;;;7.50;4.85;;;;;;;;;;5092870;28;20034;-68
2023/10/03 05:13:02;;;;;;;7.47;4.85;;;;;;;;;;5092452;28;20016;-68
2023/10/03 05:15:28;;;;;;;8.25;5.40;;;;;;;;;;5092419;28;20017;-68
2023/10/03 05:17:54;;;;;;;9.68;5.72;;;;;;;;;;5092691;28;20020;-68
2023/10/03 05:20:21;;;;;;;8.77;5.32;;;;;;;;;;5092395;28;20035;-68
2023/10/03 05:22:47;;;;;;;11.55;5.20;;;;;;;;;;5092537;28;20023;-68
2023/10/03 05:25:17;;;;;;;8.20;5.38;;;;;;;;;;5092408;28;20032;-68
2023/10/03 05:27:44;;;;;;;7.25;5.25;;;;;;;;;;5091983;28;20022;-68
2023/10/03 05:30:11;;;;;;;8.60;5.40;;;;;;;;;;5092075;28;20038;-68
2023/10/03 05:32:38;;;;;;;6.63;5.25;;;;;;;;;;5092352;28;20400;-68
2023/10/03 05:35:05;;;;;;;9.30;4.97;;;;;;;;;;5092161;28;20403;-68
2023/10/03 05:37:34;;;;;;;6.30;5.30;;;;;;;;;;5099126;28;20008;-68
2023/10/03 05:40:11;;;;;;;7.32;5.78;;;;;;;;;;5112528;28;20019;-68
2023/10/03 05:42:41;;;;;;;9.18;5.75;;;;;;;;;;5094014;28;20480;-68
2023/10/03 05:45:12;;;;;;;6.80;5.20;;;;;;;;;;5112882;28;20023;-68
2023/10/03 05:47:39;;;;;;;7.55;5.38;;;;;;;;;;5111950;28;20035;-68
2023/10/03 05:50:07;;;;;;;8.73;5.57;;;;;;;;;;5112558;28;20034;-68
2023/10/03 05:52:33;;;;;;;12.80;5.78;;;;;;;;;;5112653;28;20027;-68
2023/10/03 05:54:59;;;;;;;10.32;6.22;;;;;;;;;;5112356;28;20066;-68
2023/10/03 05:57:26;;;;;;;7.07;4.88;;;;;;;;;;5112078;28;20028;-68
2023/10/03 05:59:52;;;;;;;7.80;5.50;;;;;;;;;;5112925;28;20020;-68
2023/10/03 06:02:18;;;;;;;7.60;5.72;;;;;;;;;;5115214;28;20035;-68
2023/10/03 06:04:46;;;;;;;7.35;5.40;;;;;;;;;;5116689;28;20020;-68
2023/10/03 06:07:12;;;;;;;7.00;4.78;;;;;;;;;;5116488;28;20029;-68
2023/10/03 06:09:38;;;;;;;7.05;5.18;;;;;;;;;;5081162;28;20396;-68
2023/10/03 06:12:05;;;;;;;7.82;5.20;;;;;;;;;;5095302;28;20031;-68
2023/10/03 06:14:31;;;;;;;11.00;5.63;;;;;;;;;;5095563;28;20027;-69
2023/10/03 06:16:57;;;;;;;9.63;5.28;;;;;;;;;;5094936;28;20028;-68
2023/10/03 06:19:24;;;;;;;8.40;5.22;;;;;;;;;;5094724;28;20024;-68
2023/10/03 06:21:50;;;;;;;9.65;5.30;;;;;;;;;;5095243;28;20032;-68
2023/10/03 06:24:16;;;;;;;15.68;5.00;;;;;;;;;;5095134;28;20017;-68
2023/10/03 06:26:44;;;;;;;9.70;5.60;;;;;;;;;;5094998;28;20039;-68
2023/10/03 06:29:12;;;;;;;9.52;5.43;;;;;;;;;;5075179;28;20033;-68
2023/10/03 06:31:38;;;;;;;7.53;5.25;;;;;;;;;;5087574;28;20012;-68
2023/10/03 06:34:05;;;;;;;7.07;5.13;;;;;;;;;;5095297;28;20035;-68
2023/10/03 06:36:31;;;;;;;7.55;5.10;;;;;;;;;;5091577;28;20479;-68
2023/10/03 06:38:59;;;;;;;6.10;5.13;;;;;;;;;;5094692;28;20032;-68
2023/10/03 06:41:26;;;;;;;10.38;5.70;;;;;;;;;;5076647;28;20036;-68
2023/10/03 06:43:53;;;;;;;9.07;4.80;;;;;;;;;;5093587;28;20028;-68
2023/10/03 06:46:19;;;;;;;8.05;5.18;;;;;;;;;;5094786;28;20038;-68
2023/10/03 06:48:46;;;;;;;9.07;5.35;;;;;;;;;;5094401;28;20016;-68
2023/10/03 06:51:13;;;;;;;9.02;4.70;;;;;;;;;;5094881;28;20038;-68
2023/10/03 06:53:46;;;;;;;7.38;4.75;;;;;;;;;;5094226;28;20047;-68
2023/10/03 06:56:14;;;;;;;8.35;5.22;;;;;;;;;;5093783;28;20038;-68
2023/10/03 06:58:40;;;;;;;8.95;5.38;;;;;;;;;;5088307;28;20491;-68
2023/10/03 07:01:11;;;;;;;12.80;5.18;;;;;;;;;;5094028;28;20020;-68
2023/10/03 07:03:40;;;;;;;7.10;4.90;;;;;;;;;;5092745;28;20508;-68
2023/10/03 07:06:06;;;;;;;10.32;5.55;;;;;;;;;;5092913;28;20032;-68
2023/10/03 07:08:33;;;;;;;9.85;5.13;;;;;;;;;;5092878;28;20024;-68
2023/10/03 07:10:59;;;;;;;13.30;5.45;;;;;;;;;;5092651;28;20038;-68
2023/10/03 07:13:26;;;;;;;8.63;4.85;;;;;;;;;;5092157;28;20024;-68
2023/10/03 07:15:53;;;;;;;7.90;4.97;;;;;;;;;;5093138;28;20020;-67
2023/10/03 07:18:22;;;;;;;15.70;5.47;;;;;;;;;;5091961;28;20031;-68
2023/10/03 07:20:49;;;;;;;13.93;5.82;;;;;;;;;;5092894;28;20056;-68
2023/10/03 07:23:17;;;;;;;11.07;5.70;;;;;;;;;;5092674;28;20024;-68
2023/10/03 07:25:43;;;;;;;13.00;5.55;;;;;;;;;;5075001;28;20489;-68
2023/10/03 07:28:09;;;;;;;10.63;5.00;;;;;;;;;;5092573;28;20016;-68
2023/10/03 07:30:36;;;;;;;8.77;5.43;;;;;;;;;;5090989;28;20016;-68
2023/10/03 07:33:05;;;;;;;11.27;4.72;;;;;;;;;;5092946;28;20028;-68
2023/10/03 07:35:34;;;;;;;8.48;5.18;;;;;;;;;;5092605;28;20034;-68
2023/10/03 07:38:01;;;;;;;12.57;5.18;;;;;;;;;;5091889;28;20043;-68
2023/10/03 07:40:28;;;;;;;7.72;4.97;;;;;;;;;;5092515;28;20034;-68
2023/10/03 07:42:54;;;;;;;10.80;5.07;;;;;;;;;;5092645;28;20050;-67
2023/10/03 07:45:21;;;;;;;8.20;5.47;;;;;;;;;;5092767;28;20028;-68
2023/10/03 07:47:50;;;;;;;7.72;4.72;;;;;;;;;;5092591;28;20476;-68
2023/10/03 07:50:16;;;;;;;8.65;5.28;;;;;;;;;;5092804;28;20016;-68
2023/10/03 07:52:44;;;;;;;10.75;5.10;;;;;;;;;;5092318;28;20020;-68
2023/10/03 07:55:11;;;;;;;9.32;5.45;;;;;;;;;;5049621;28;1217566;-68
2023/10/03 07:57:41;;;;;;;10.27;5.00;;;;;;;;;;5092840;28;20415;-68
2023/10/03 08:00:09;;;;;;;12.02;5.20;;;;;;;;;;5092321;28;20028;-67
2023/10/03 08:02:38;;;;;;;9.10;5.60;;;;;;;;;;5093467;28;20036;-68
2023/10/03 08:05:07;;;;;;;9.32;5.13;;;;;;;;;;5093042;28;20030;-68
2023/10/03 08:07:37;;;;;;;8.98;5.13;;;;;;;;;;5092306;28;20032;-68
2023/10/03 08:10:04;;;;;;;8.87;5.13;;;;;;;;;;5092936;28;20016;-68
2023/10/03 08:12:37;;;;;;;12.05;5.38;;;;;;;;;;5093276;28;20042;-68
2023/10/03 08:15:16;;;;;;;10.00;5.28;;;;;;;;;;5092815;28;20028;-68
2023/10/03 08:17:44;;;;;;;9.88;4.90;;;;;;;;;;5091995;28;20020;-68
2023/10/03 08:20:14;;;;;;;8.07;4.75;;;;;;;;;;5092884;28;20028;-68
2023/10/03 08:22:50;;;;;;;14.73;5.30;;;;;;;;;;5092614;28;20030;-68
2023/10/03 08:25:21;;;;;;;9.93;4.85;;;;;;;;;;5091202;28;20024;-68
2023/10/03 08:27:49;;;;;;;10.70;5.32;;;;;;;;;;5092548;28;20050;-68
2023/10/03 08:30:27;;;;;;;27.20;6.38;;;;;;;;;;5074462;28;20028;-68
2023/10/03 08:32:57;;;;;;;26.13;5.93;;;;;;;;;;5092776;28;20028;-68
2023/10/03 08:35:37;;;;;;;9.27;5.18;;;;;;;;;;5092097;28;20365;-68
2023/10/03 08:38:11;;;;;;;12.48;4.90;;;;;;;;;;5091543;28;20477;-68
2023/10/03 08:40:39;;;;;;;8.55;4.97;;;;;;;;;;5091721;28;20024;-68
2023/10/03 08:43:08;;;;;;;11.02;5.57;;;;;;;;;;5090998;28;20490;-68
2023/10/03 08:45:38;;;;;;;11.65;4.75;;;;;;;;;;5092153;28;20013;-68
2023/10/03 08:48:06;;;;;;;12.90;5.30;;;;;;;;;;5091692;28;20028;-68
2023/10/03 08:50:53;;;;;;;16.10;4.88;;;;;;;;;;5091135;28;20034;-68
2023/10/03 08:53:28;;;;;;;8.60;4.47;;;;;;;;;;5091709;28;20036;-68
2023/10/03 08:55:58;;;;;;;8.77;5.07;;;;;;;;;;5080820;28;20036;-68
2023/10/03 08:58:28;;;;;;;11.73;5.50;;;;;;;;;;5090715;28;20024;-68
2023/10/03 09:01:04;;;;;;;10.30;4.87;;;;;;;;;;5092007;28;20039;-68
2023/10/03 09:03:48;;;;;;;7.93;4.55;;;;;;;;;;5092027;28;20254;-68
2023/10/03 09:06:22;;;;;;;6.78;4.95;;;;;;;;;;5091163;28;20034;-68
2023/10/03 09:09:07;;;;;;;9.48;4.55;;;;;;;;;;5091021;28;20195;-68
2023/10/03 09:11:37;;;;;;;14.50;5.75;;;;;;;;;;5091584;28;20384;-68
2023/10/03 09:14:04;;;;;;;8.02;5.25;;;;;;;;;;5091704;28;20020;-68
2023/10/03 09:16:30;;;;;;;14.70;4.85;;;;;;;;;;5073730;28;20028;-68
2023/10/03 09:18:56;;;;;;;9.32;5.05;;;;;;;;;;5090689;28;20050;-68
2023/10/03 09:21:29;;;;;;;11.43;4.90;;;;;;;;;;5091252;28;20036;-68
2023/10/03 09:24:01;;;;;;;12.68;5.25;;;;;;;;;;5091739;28;20020;-68
2023/10/03 09:26:45;;;;;;;10.05;4.95;;;;;;;;;;5091153;28;20041;-68
2023/10/03 09:29:18;;;;;;;8.18;5.55;;;;;;;;;;5084027;28;20028;-68
2023/10/03 09:31:45;;;;;;;7.57;4.90;;;;;;;;;;5091105;28;20072;-68
2023/10/03 09:34:14;;;;;;;9.18;5.35;;;;;;;;;;5091337;28;20024;-68
2023/10/03 09:36:41;;;;;;;10.02;4.85;;;;;;;;;;5091849;28;20039;-68
2023/10/03 09:39:08;;;;;;;11.82;5.15;;;;;;;;;;5091515;28;20081;-67
2023/10/03 09:41:38;;;;;;;10.43;5.03;;;;;;;;;;5073389;28;20047;-68
2023/10/03 09:44:06;;;;;;;11.48;4.68;;;;;;;;;;5092019;28;20027;-68
2023/10/03 09:46:41;;;;;;;12.98;4.85;;;;;;;;;;5091665;28;20028;-68
2023/10/03 09:49:08;;;;;;;12.52;5.05;;;;;;;;;;5090976;28;20024;-66
2023/10/03 09:51:47;;;;;;;8.38;4.70;;;;;;;;;;5091063;28;20484;-67
2023/10/03 09:54:30;;;;;;;9.80;4.50;;;;;;;;;;5089410;28;20044;-68
2023/10/03 09:56:57;;;;;;;11.52;4.88;;;;;;;;;;5089877;28;20414;-68
2023/10/03 09:59:24;;;;;;;12.88;4.85;;;;;;;;;;5091018;28;20495;-68
2023/10/03 10:01:59;;;;;;;10.13;5.20;;;;;;;;;;5091373;28;20044;-68
2023/10/03 10:04:27;;;;;;;10.65;5.43;;;;;;;;;;5091080;28;20041;-68
2023/10/03 10:07:29;;;;;;;13.48;5.57;;;;;;;;;;5091113;28;20028;-69
2023/10/03 10:10:07;;;;;;;9.73;5.22;;;;;;;;;;4973640;28;20043;-68
2023/10/03 10:12:37;;;;;;;13.02;5.35;;;;;;;;;;4989725;28;20033;-68
2023/10/03 10:17:55;;;;;;;15.30;4.85;;;;;;;;;;4989087;28;20539;-68
2023/10/03 10:20:38;;;;;;;15.55;5.35;;;;;;;;;;4973024;28;20455;-68
2023/10/03 10:25:43;;;;;;;15.27;5.43;;;;;;;;;;4972449;28;20040;-68
2023/10/03 10:28:11;;;;;;;8.73;4.57;;;;;;;;;;4989356;28;20038;-68
2023/10/03 10:30:39;;;;;;;7.60;4.80;;;;;;;;;;4989741;28;20045;-68
2023/10/03 10:33:17;;;;;;;14.82;5.78;;;;;;;;;;4989018;28;20041;-68
2023/10/03 10:35:56;;;;;;;10.57;5.20;;;;;;;;;;4989168;28;20525;-68
2023/10/03 10:38:42;;;;;;;10.80;5.13;;;;;;;;;;4989267;28;20046;-68
2023/10/03 10:41:12;;;;;;;6.35;5.10;;;;;;;;;;4989145;28;20054;-68
2023/10/03 10:44:01;;;;;;;11.30;5.45;;;;;;;;;;4989143;28;20076;-68
2023/10/03 10:46:47;;;;;;;8.02;5.40;;;;;;;;;;5022853;28;20043;-68
2023/10/03 10:49:34;;;;;;;8.57;5.32;;;;;;;;;;5074481;28;20039;-69
2023/10/03 10:52:06;;;;;;;8.23;5.43;;;;;;;;;;5074611;28;20017;-68
2023/10/03 10:54:36;;;;;;;8.65;5.32;;;;;;;;;;5074232;28;20416;-68
2023/10/03 10:57:03;;;;;;;8.95;5.63;;;;;;;;;;5074217;28;20493;-68
2023/10/03 10:59:39;;;;;;;9.13;5.22;;;;;;;;;;5074016;28;20037;-69
2023/10/03 11:02:38;;;;;;;6.40;5.25;;;;;;;;;;5072256;28;20370;-68
2023/10/03 11:05:05;;;;;;;7.13;4.63;;;;;;;;;;4991584;28;20034;-68
2023/10/03 11:07:33;;;;;;;6.85;5.38;;;;;;;;;;4992440;28;20085;-69
2023/10/03 11:10:07;;;;;;;7.00;5.28;;;;;;;;;;4976216;28;20298;-69
2023/10/03 11:12:35;;;;;;;8.68;5.53;;;;;;;;;;4992427;28;20042;-68
2023/10/03 11:15:01;;;;;;;13.18;6.40;;;;;;;;;;4994703;28;20084;-69
2023/10/03 11:17:28;;;;;;;6.82;5.82;;;;;;;;;;4995285;28;20060;-69
2023/10/03 11:19:55;;;;;;;7.10;5.55;;;;;;;;;;5012145;28;20030;-68
2023/10/03 11:22:21;;;;;;;6.85;5.22;;;;;;;;;;5011570;28;20530;-69
2023/10/03 11:24:48;;;;;;;7.40;5.57;;;;;;;;;;5011803;28;20462;-69
2023/10/03 11:27:28;;;;;;;9.40;6.10;;;;;;;;;;5011790;28;20044;-69
2023/10/03 11:29:55;;;;;;;8.43;6.18;;;;;;;;;;5011616;28;20030;-69
2023/10/03 11:32:23;;;;;;;5.80;5.20;;;;;;;;;;5011655;28;20030;-69
2023/10/03 11:34:49;;;;;;;9.20;5.78;;;;;;;;;;5011488;28;20411;-69
2023/10/03 11:37:33;;;;;;;10.40;5.47;;;;;;;;;;5011629;28;20040;-69
2023/10/03 11:40:16;;;;;;;16.58;5.78;;;;;;;;;;5025371;28;20043;-69
2023/10/03 11:42:58;;;;;;;6.03;5.35;;;;;;;;;;5073310;28;20157;-69
2023/10/03 11:45:33;;;;;;;10.88;4.53;;;;;;;;;;5073302;28;20025;-69
2023/10/03 11:48:10;;;;;;;7.55;4.57;;;;;;;;;;5073011;28;20493;-69
2023/10/03 11:50:40;;;;;;;11.82;4.38;;;;;;;;;;5073487;28;20032;-69
2023/10/03 11:53:11;;;;;;;6.35;3.92;;;;;;;;;;5085406;28;20020;-69
2023/10/03 11:55:40;;;;;;;4.80;4.25;;;;;;;;;;5092098;28;20036;-69
2023/10/03 11:58:07;;;;;;;8.27;4.40;;;;;;;;;;5090963;28;20031;-69
2023/10/03 12:00:35;;;;;;;6.15;3.97;;;;;;;;;;5091982;28;20032;-69
2023/10/03 12:03:05;;;;;;;5.38;4.22;;;;;;;;;;5093058;28;20489;-69
2023/10/03 12:05:32;;;;;;;6.70;4.40;;;;;;;;;;5090136;28;20038;-69
2023/10/03 12:07:58;;;;;;;8.07;3.97;;;;;;;;;;5092368;28;20472;-70
2023/10/03 12:10:26;;;;;;;4.47;3.60;;;;;;;;;;5092765;28;20385;-69
2023/10/03 12:12:52;;;;;;;4.60;3.58;;;;;;;;;;5092446;28;20485;-70
2023/10/03 12:15:22;;;;;;;5.65;4.38;;;;;;;;;;5092898;28;20020;-70
2023/10/03 12:17:48;;;;;;;4.55;3.72;;;;;;;;;;5092583;28;20032;-69
2023/10/03 12:20:18;;;;;;;4.43;4.00;;;;;;;;;;5092740;28;20043;-70
2023/10/03 12:22:51;;;;;;;7.03;4.80;;;;;;;;;;5091954;28;20218;-70
2023/10/03 12:25:20;;;;;;;5.50;4.88;;;;;;;;;;5092588;28;20016;-70
2023/10/03 12:27:46;;;;;;;8.23;4.85;;;;;;;;;;5091926;28;20016;-70
2023/10/03 12:30:22;;;;;;;5.38;4.88;;;;;;;;;;5092155;28;20028;-70
2023/10/03 12:32:50;;;;;;;5.45;4.90;;;;;;;;;;5092406;28;20481;-71
2023/10/03 12:35:16;;;;;;;6.63;4.70;;;;;;;;;;5091997;28;20485;-71
2023/10/03 12:37:46;;;;;;;7.05;5.18;;;;;;;;;;5091741;28;20378;-71
2023/10/03 12:40:16;;;;;;;6.03;5.32;;;;;;;;;;5092692;28;20024;-71
2023/10/03 12:42:43;;;;;;;7.22;5.30;;;;;;;;;;5090606;28;20028;-70
2023/10/03 12:45:15;;;;;;;8.23;5.55;;;;;;;;;;5074330;28;20028;-70
2023/10/03 12:47:47;;;;;;;7.30;5.90;;;;;;;;;;5092246;28;20038;-71
2023/10/03 12:50:21;;;;;;;8.50;5.43;;;;;;;;;;5092113;28;20102;-69
2023/10/03 12:53:01;;;;;;;6.95;5.78;;;;;;;;;;5076362;28;20020;-70
2023/10/03 12:55:29;;;;;;;6.25;5.65;;;;;;;;;;5091730;28;20036;-70
2023/10/03 12:57:58;;;;;;;9.93;6.43;;;;;;;;;;5091735;28;20028;-70
2023/10/03 13:00:25;;;;;;;8.18;5.82;;;;;;;;;;5092514;28;20031;-69
2023/10/03 13:02:52;;;;;;;11.77;6.00;;;;;;;;;;5074084;28;20042;-70
2023/10/03 13:05:21;;;;;;;9.07;5.72;;;;;;;;;;5091942;28;20027;-70
2023/10/03 13:07:48;;;;;;;10.00;6.32;;;;;;;;;;5092119;28;20031;-70
2023/10/03 13:10:17;;;;;;;8.10;5.50;;;;;;;;;;5091210;28;20080;-70
2023/10/03 13:12:43;;;;;;;9.23;5.68;;;;;;;;;;5090030;28;20049;-70
2023/10/03 13:15:10;;;;;;;10.30;5.90;;;;;;;;;;5088408;28;20026;-70
2023/10/03 13:17:37;;;;;;;8.40;5.35;;;;;;;;;;5091703;28;20035;-70
2023/10/03 13:20:04;;;;;;;8.05;4.63;;;;;;;;;;5091585;28;20024;-70
2023/10/03 13:22:32;;;;;;;10.00;5.00;;;;;;;;;;5090402;28;20040;-70
2023/10/03 13:24:58;;;;;;;9.80;5.22;;;;;;;;;;5073196;28;20039;-70
2023/10/03 13:27:25;;;;;;;16.48;5.40;;;;;;;;;;5091355;28;20034;-70
2023/10/03 13:29:52;;;;;;;11.75;4.95;;;;;;;;;;5091567;28;20024;-70
2023/10/03 13:32:20;;;;;;;9.88;4.88;;;;;;;;;;5091388;28;20031;-70
2023/10/03 13:34:46;;;;;;;10.90;4.57;;;;;;;;;;5090666;28;20019;-70
2023/10/03 13:37:13;;;;;;;7.82;4.45;;;;;;;;;;5073373;28;20040;-70
2023/10/03 13:39:40;;;;;;;12.95;4.25;;;;;;;;;;5090585;28;20047;-69
2023/10/03 13:42:07;;;;;;;9.65;4.10;;;;;;;;;;5090826;28;20044;-70
2023/10/03 13:44:35;;;;;;;7.72;4.25;;;;;;;;;;5091612;28;20016;-69
2023/10/03 13:47:03;;;;;;;9.57;4.43;;;;;;;;;;5090301;28;20492;-70
2023/10/03 13:49:29;;;;;;;11.50;5.05;;;;;;;;;;5090561;28;20023;-70
2023/10/03 13:51:55;;;;;;;11.05;4.75;;;;;;;;;;5091530;28;20506;-70
2023/10/03 13:54:24;;;;;;;11.43;4.78;;;;;;;;;;5090523;28;20501;-70
2023/10/03 13:56:50;;;;;;;18.88;4.18;;;;;;;;;;5089240;28;20035;-70
2023/10/03 13:59:16;;;;;;;17.88;4.85;;;;;;;;;;5091007;28;20030;-70
2023/10/03 14:01:43;;;;;;;10.40;4.30;;;;;;;;;;5090367;28;20032;-70
2023/10/03 14:04:12;;;;;;;16.27;4.97;;;;;;;;;;5089000;28;20028;-70
2023/10/03 14:06:39;;;;;;;10.45;4.80;;;;;;;;;;5090922;28;20024;-69
2023/10/03 14:09:09;;;;;;;9.45;4.47;;;;;;;;;;5090375;28;20028;-70
2023/10/03 14:11:36;;;;;;;6.75;3.95;;;;;;;;;;5091014;28;20024;-70
2023/10/03 14:14:03;;;;;;;7.22;4.22;;;;;;;;;;5089627;28;20020;-69
2023/10/03 14:16:29;;;;;;;8.40;3.95;;;;;;;;;;5091111;28;20028;-69
2023/10/03 14:18:57;;;;;;;9.07;3.78;;;;;;;;;;5089539;28;20027;-70
2023/10/03 14:21:23;;;;;;;7.53;4.30;;;;;;;;;;5091027;28;20415;-70
2023/10/03 14:23:53;;;;;;;9.38;4.13;;;;;;;;;;5093538;28;20491;-70
2023/10/03 14:26:19;;;;;;;10.82;4.05;;;;;;;;;;5094556;28;20039;-70
2023/10/03 14:28:45;;;;;;;12.05;4.32;;;;;;;;;;5093955;28;20026;-70
2023/10/03 14:31:12;;;;;;;12.10;3.90;;;;;;;;;;5094710;28;20042;-70
2023/10/03 14:33:38;;;;;;;6.63;3.15;;;;;;;;;;5094120;28;20067;-70
2023/10/03 14:36:05;;;;;;;10.95;3.53;;;;;;;;;;5094433;28;20514;-70
2023/10/03 14:38:32;;;;;;;9.05;3.85;;;;;;;;;;5094428;28;20024;-69
2023/10/03 14:40:58;;;;;;;5.35;3.47;;;;;;;;;;5094671;28;20032;-69
2023/10/03 14:43:25;;;;;;;10.05;3.40;;;;;;;;;;5094179;28;20048;-69
2023/10/03 14:45:51;;;;;;;12.77;4.10;;;;;;;;;;5094667;28;20013;-70
2023/10/03 14:48:24;;;;;;;12.93;3.42;;;;;;;;;;5094360;28;20035;-70
2023/10/03 14:50:52;;;;;;;8.48;3.28;;;;;;;;;;5094451;28;20016;-69
2023/10/03 14:53:19;;;;;;;9.82;3.30;;;;;;;;;;5093522;28;20404;-70
2023/10/03 14:55:46;;;;;;;16.02;3.40;;;;;;;;;;5093899;28;20443;-69